sensor_id;sensor_type;location;lat;lon;timestamp;P1;durP1;ratioP1;P2;durP2;ratioP2
12792;SDS011;6460;42.684;23.260;2023-12-28T00:01:30;37.07;;;25.23;;
12792;SDS011;6460;42.684;23.260;2023-12-28T00:04:00;34.70;;;24.53;;
12792;SDS011;6460;42.684;23.260;2023-12-28T00:06:28;39.03;;;25.73;;
12792;SDS011;6460;42.684;23.260;2023-12-28T00:08:56;36.17;;;25.80;;
12792;SDS011;6460;42.684;23.260;2023-12-28T00:11:26;41.90;;;26.30;;
12792;SDS011;6460;42.684;23.260;2023-12-28T00:13:54;42.40;;;26.17;;
12792;SDS011;6460;42.684;23.260;2023-12-28T00:16:22;38.00;;;26.47;;
12792;SDS011;6460;42.684;23.260;2023-12-28T00:18:49;40.33;;;27.10;;
12792;SDS011;6460;42.684;23.260;2023-12-28T00:21:18;41.97;;;27.40;;
12792;SDS011;6460;42.684;23.260;2023-12-28T00:23:46;39.83;;;27.13;;
12792;SDS011;6460;42.684;23.260;2023-12-28T00:26:14;43.43;;;29.80;;
12792;SDS011;6460;42.684;23.260;2023-12-28T00:28:46;42.07;;;28.27;;
12792;SDS011;6460;42.684;23.260;2023-12-28T00:31:14;40.37;;;28.87;;
12792;SDS011;6460;42.684;23.260;2023-12-28T00:33:42;40.10;;;27.30;;
12792;SDS011;6460;42.684;23.260;2023-12-28T00:36:10;39.17;;;26.17;;
12792;SDS011;6460;42.684;23.260;2023-12-28T00:38:40;38.83;;;24.73;;
12792;SDS011;6460;42.684;23.260;2023-12-28T00:41:08;38.20;;;25.00;;
12792;SDS011;6460;42.684;23.260;2023-12-28T00:43:36;35.37;;;25.50;;
12792;SDS011;6460;42.684;23.260;2023-12-28T00:46:04;36.13;;;25.13;;
12792;SDS011;6460;42.684;23.260;2023-12-28T00:48:32;36.30;;;26.27;;
12792;SDS011;6460;42.684;23.260;2023-12-28T00:51:00;35.13;;;24.13;;
12792;SDS011;6460;42.684;23.260;2023-12-28T00:53:28;37.87;;;25.00;;
12792;SDS011;6460;42.684;23.260;2023-12-28T00:55:58;37.07;;;24.23;;
12792;SDS011;6460;42.684;23.260;2023-12-28T00:58:26;43.90;;;28.17;;
12792;SDS011;6460;42.684;23.260;2023-12-28T01:00:54;78.70;;;58.33;;
12792;SDS011;6460;42.684;23.260;2023-12-28T01:03:23;123.27;;;78.27;;
12792;SDS011;6460;42.684;23.260;2023-12-28T01:05:51;119.73;;;73.53;;
12792;SDS011;6460;42.684;23.260;2023-12-28T01:08:19;116.27;;;72.80;;
12792;SDS011;6460;42.684;23.260;2023-12-28T01:10:47;101.77;;;56.47;;
12792;SDS011;6460;42.684;23.260;2023-12-28T01:13:16;94.57;;;56.87;;
12792;SDS011;6460;42.684;23.260;2023-12-28T01:15:44;69.93;;;46.40;;
12792;SDS011;6460;42.684;23.260;2023-12-28T01:18:12;56.50;;;39.83;;
12792;SDS011;6460;42.684;23.260;2023-12-28T01:20:40;53.70;;;37.83;;
12792;SDS011;6460;42.684;23.260;2023-12-28T01:23:09;55.00;;;38.73;;
12792;SDS011;6460;42.684;23.260;2023-12-28T01:25:37;39.30;;;28.03;;
12792;SDS011;6460;42.684;23.260;2023-12-28T01:28:05;33.33;;;23.73;;
12792;SDS011;6460;42.684;23.260;2023-12-28T01:30:34;34.87;;;23.27;;
12792;SDS011;6460;42.684;23.260;2023-12-28T01:33:02;41.83;;;30.20;;
12792;SDS011;6460;42.684;23.260;2023-12-28T01:35:30;36.60;;;26.20;;
12792;SDS011;6460;42.684;23.260;2023-12-28T01:37:58;31.90;;;21.23;;
12792;SDS011;6460;42.684;23.260;2023-12-28T01:40:27;31.00;;;19.30;;
12792;SDS011;6460;42.684;23.260;2023-12-28T01:42:55;29.43;;;19.30;;
12792;SDS011;6460;42.684;23.260;2023-12-28T01:45:23;26.00;;;18.17;;
12792;SDS011;6460;42.684;23.260;2023-12-28T01:47:53;44.00;;;30.37;;
12792;SDS011;6460;42.684;23.260;2023-12-28T01:50:23;34.27;;;24.47;;
12792;SDS011;6460;42.684;23.260;2023-12-28T01:52:53;27.40;;;19.70;;
12792;SDS011;6460;42.684;23.260;2023-12-28T01:55:23;27.53;;;19.27;;
12792;SDS011;6460;42.684;23.260;2023-12-28T01:57:51;24.00;;;16.20;;
12792;SDS011;6460;42.684;23.260;2023-12-28T02:00:21;29.67;;;18.93;;
12792;SDS011;6460;42.684;23.260;2023-12-28T02:02:49;26.33;;;18.83;;
12792;SDS011;6460;42.684;23.260;2023-12-28T02:05:20;27.57;;;18.67;;
12792;SDS011;6460;42.684;23.260;2023-12-28T02:07:48;25.63;;;18.33;;
12792;SDS011;6460;42.684;23.260;2023-12-28T02:10:16;26.80;;;18.50;;
12792;SDS011;6460;42.684;23.260;2023-12-28T02:12:44;24.03;;;17.73;;
12792;SDS011;6460;42.684;23.260;2023-12-28T02:15:15;31.33;;;21.07;;
12792;SDS011;6460;42.684;23.260;2023-12-28T02:17:43;37.60;;;25.80;;
12792;SDS011;6460;42.684;23.260;2023-12-28T02:20:17;34.70;;;25.43;;
12792;SDS011;6460;42.684;23.260;2023-12-28T02:22:48;34.80;;;22.00;;
12792;SDS011;6460;42.684;23.260;2023-12-28T02:25:19;47.87;;;32.90;;
12792;SDS011;6460;42.684;23.260;2023-12-28T02:27:47;31.20;;;20.50;;
12792;SDS011;6460;42.684;23.260;2023-12-28T02:30:17;33.93;;;25.57;;
12792;SDS011;6460;42.684;23.260;2023-12-28T02:32:52;31.07;;;20.73;;
12792;SDS011;6460;42.684;23.260;2023-12-28T02:35:29;34.37;;;23.27;;
12792;SDS011;6460;42.684;23.260;2023-12-28T02:38:01;31.40;;;22.53;;
12792;SDS011;6460;42.684;23.260;2023-12-28T02:40:35;32.23;;;22.73;;
12792;SDS011;6460;42.684;23.260;2023-12-28T02:43:05;33.33;;;23.53;;
12792;SDS011;6460;42.684;23.260;2023-12-28T02:45:33;37.13;;;23.67;;
12792;SDS011;6460;42.684;23.260;2023-12-28T02:48:02;35.33;;;21.67;;
12792;SDS011;6460;42.684;23.260;2023-12-28T02:50:30;30.30;;;21.03;;
12792;SDS011;6460;42.684;23.260;2023-12-28T02:52:59;28.43;;;19.07;;
12792;SDS011;6460;42.684;23.260;2023-12-28T02:55:27;32.07;;;21.27;;
12792;SDS011;6460;42.684;23.260;2023-12-28T02:57:57;29.27;;;20.50;;
12792;SDS011;6460;42.684;23.260;2023-12-28T03:00:26;28.57;;;19.30;;
12792;SDS011;6460;42.684;23.260;2023-12-28T03:02:54;28.33;;;18.40;;
12792;SDS011;6460;42.684;23.260;2023-12-28T03:05:22;23.03;;;16.43;;
12792;SDS011;6460;42.684;23.260;2023-12-28T03:07:50;22.27;;;15.17;;
12792;SDS011;6460;42.684;23.260;2023-12-28T03:10:18;22.00;;;15.57;;
12792;SDS011;6460;42.684;23.260;2023-12-28T03:12:46;21.63;;;16.00;;
12792;SDS011;6460;42.684;23.260;2023-12-28T03:15:15;20.40;;;14.67;;
12792;SDS011;6460;42.684;23.260;2023-12-28T03:17:43;20.80;;;14.60;;
12792;SDS011;6460;42.684;23.260;2023-12-28T03:20:12;19.50;;;13.80;;
12792;SDS011;6460;42.684;23.260;2023-12-28T03:22:40;21.00;;;14.73;;
12792;SDS011;6460;42.684;23.260;2023-12-28T03:25:08;21.73;;;13.80;;
12792;SDS011;6460;42.684;23.260;2023-12-28T03:27:35;21.17;;;15.10;;
12792;SDS011;6460;42.684;23.260;2023-12-28T03:30:04;21.20;;;14.73;;
12792;SDS011;6460;42.684;23.260;2023-12-28T03:32:34;25.80;;;16.60;;
12792;SDS011;6460;42.684;23.260;2023-12-28T03:35:02;26.73;;;16.97;;
12792;SDS011;6460;42.684;23.260;2023-12-28T03:37:32;22.47;;;16.00;;
12792;SDS011;6460;42.684;23.260;2023-12-28T03:40:00;21.70;;;15.53;;
12792;SDS011;6460;42.684;23.260;2023-12-28T03:42:28;22.67;;;14.67;;
12792;SDS011;6460;42.684;23.260;2023-12-28T03:44:56;18.63;;;13.20;;
12792;SDS011;6460;42.684;23.260;2023-12-28T03:47:24;20.73;;;13.40;;
12792;SDS011;6460;42.684;23.260;2023-12-28T03:49:54;23.03;;;14.60;;
12792;SDS011;6460;42.684;23.260;2023-12-28T03:52:22;27.20;;;17.13;;
12792;SDS011;6460;42.684;23.260;2023-12-28T03:54:55;38.70;;;20.80;;
12792;SDS011;6460;42.684;23.260;2023-12-28T03:57:23;35.30;;;19.93;;
12792;SDS011;6460;42.684;23.260;2023-12-28T03:59:52;28.33;;;18.77;;
12792;SDS011;6460;42.684;23.260;2023-12-28T04:02:20;30.33;;;18.70;;
12792;SDS011;6460;42.684;23.260;2023-12-28T04:04:50;30.33;;;18.50;;
12792;SDS011;6460;42.684;23.260;2023-12-28T04:07:19;29.63;;;18.97;;
12792;SDS011;6460;42.684;23.260;2023-12-28T04:09:47;28.33;;;18.77;;
12792;SDS011;6460;42.684;23.260;2023-12-28T04:12:15;27.33;;;17.50;;
12792;SDS011;6460;42.684;23.260;2023-12-28T04:14:43;29.77;;;19.67;;
12792;SDS011;6460;42.684;23.260;2023-12-28T04:17:11;28.27;;;19.33;;
12792;SDS011;6460;42.684;23.260;2023-12-28T04:19:39;30.10;;;19.47;;
12792;SDS011;6460;42.684;23.260;2023-12-28T04:22:07;29.87;;;21.00;;
12792;SDS011;6460;42.684;23.260;2023-12-28T04:24:37;29.67;;;21.43;;
12792;SDS011;6460;42.684;23.260;2023-12-28T04:27:05;30.30;;;20.93;;
12792;SDS011;6460;42.684;23.260;2023-12-28T04:29:34;26.20;;;18.37;;
12792;SDS011;6460;42.684;23.260;2023-12-28T04:32:03;25.17;;;17.93;;
12792;SDS011;6460;42.684;23.260;2023-12-28T04:34:31;27.73;;;18.77;;
12792;SDS011;6460;42.684;23.260;2023-12-28T04:36:59;26.47;;;18.17;;
12792;SDS011;6460;42.684;23.260;2023-12-28T04:39:27;25.30;;;17.97;;
12792;SDS011;6460;42.684;23.260;2023-12-28T04:41:56;24.83;;;17.30;;
12792;SDS011;6460;42.684;23.260;2023-12-28T04:44:24;23.70;;;16.77;;
12792;SDS011;6460;42.684;23.260;2023-12-28T04:46:52;23.27;;;17.03;;
12792;SDS011;6460;42.684;23.260;2023-12-28T04:49:20;24.83;;;17.80;;
12792;SDS011;6460;42.684;23.260;2023-12-28T04:51:48;24.93;;;17.73;;
12792;SDS011;6460;42.684;23.260;2023-12-28T04:54:16;25.93;;;18.13;;
12792;SDS011;6460;42.684;23.260;2023-12-28T04:56:44;26.37;;;17.87;;
12792;SDS011;6460;42.684;23.260;2023-12-28T04:59:14;25.80;;;17.17;;
12792;SDS011;6460;42.684;23.260;2023-12-28T05:01:42;24.97;;;16.97;;
12792;SDS011;6460;42.684;23.260;2023-12-28T05:04:10;25.87;;;16.53;;
12792;SDS011;6460;42.684;23.260;2023-12-28T05:06:39;22.20;;;16.47;;
12792;SDS011;6460;42.684;23.260;2023-12-28T05:09:07;24.60;;;17.47;;
12792;SDS011;6460;42.684;23.260;2023-12-28T05:11:35;23.97;;;18.50;;
12792;SDS011;6460;42.684;23.260;2023-12-28T05:14:03;24.70;;;17.17;;
12792;SDS011;6460;42.684;23.260;2023-12-28T05:16:33;23.40;;;18.77;;
12792;SDS011;6460;42.684;23.260;2023-12-28T05:19:01;29.00;;;18.10;;
12792;SDS011;6460;42.684;23.260;2023-12-28T05:21:29;27.37;;;19.07;;
12792;SDS011;6460;42.684;23.260;2023-12-28T05:23:56;27.30;;;18.93;;
12792;SDS011;6460;42.684;23.260;2023-12-28T05:26:24;24.70;;;17.17;;
12792;SDS011;6460;42.684;23.260;2023-12-28T05:28:53;23.07;;;16.30;;
12792;SDS011;6460;42.684;23.260;2023-12-28T05:31:21;24.23;;;16.57;;
12792;SDS011;6460;42.684;23.260;2023-12-28T05:33:50;24.63;;;17.77;;
12792;SDS011;6460;42.684;23.260;2023-12-28T05:36:18;26.33;;;17.73;;
12792;SDS011;6460;42.684;23.260;2023-12-28T05:38:47;24.60;;;17.80;;
12792;SDS011;6460;42.684;23.260;2023-12-28T05:41:15;26.47;;;17.73;;
12792;SDS011;6460;42.684;23.260;2023-12-28T05:43:43;24.53;;;17.97;;
12792;SDS011;6460;42.684;23.260;2023-12-28T05:46:11;25.77;;;18.70;;
12792;SDS011;6460;42.684;23.260;2023-12-28T05:48:39;24.87;;;18.00;;
12792;SDS011;6460;42.684;23.260;2023-12-28T05:51:09;29.90;;;20.13;;
12792;SDS011;6460;42.684;23.260;2023-12-28T05:53:36;35.10;;;23.23;;
12792;SDS011;6460;42.684;23.260;2023-12-28T05:56:04;27.67;;;19.83;;
12792;SDS011;6460;42.684;23.260;2023-12-28T05:58:33;28.87;;;18.57;;
12792;SDS011;6460;42.684;23.260;2023-12-28T06:01:02;28.70;;;18.40;;
12792;SDS011;6460;42.684;23.260;2023-12-28T06:03:30;27.40;;;17.90;;
12792;SDS011;6460;42.684;23.260;2023-12-28T06:05:58;25.10;;;17.50;;
12792;SDS011;6460;42.684;23.260;2023-12-28T06:08:28;27.57;;;18.07;;
12792;SDS011;6460;42.684;23.260;2023-12-28T06:10:56;24.43;;;17.83;;
12792;SDS011;6460;42.684;23.260;2023-12-28T06:13:24;28.77;;;18.13;;
12792;SDS011;6460;42.684;23.260;2023-12-28T06:15:51;27.07;;;18.47;;
12792;SDS011;6460;42.684;23.260;2023-12-28T06:18:19;28.83;;;19.40;;
12792;SDS011;6460;42.684;23.260;2023-12-28T06:20:47;28.80;;;18.07;;
12792;SDS011;6460;42.684;23.260;2023-12-28T06:23:15;29.73;;;19.13;;
12792;SDS011;6460;42.684;23.260;2023-12-28T06:25:45;32.93;;;20.97;;
12792;SDS011;6460;42.684;23.260;2023-12-28T06:28:13;28.07;;;18.37;;
12792;SDS011;6460;42.684;23.260;2023-12-28T06:30:41;28.57;;;20.30;;
12792;SDS011;6460;42.684;23.260;2023-12-28T06:33:09;30.50;;;22.27;;
12792;SDS011;6460;42.684;23.260;2023-12-28T06:35:37;30.40;;;21.67;;
12792;SDS011;6460;42.684;23.260;2023-12-28T06:38:05;31.93;;;21.40;;
12792;SDS011;6460;42.684;23.260;2023-12-28T06:40:33;32.40;;;22.03;;
12792;SDS011;6460;42.684;23.260;2023-12-28T06:43:03;42.13;;;29.50;;
12792;SDS011;6460;42.684;23.260;2023-12-28T06:45:31;42.20;;;27.77;;
12792;SDS011;6460;42.684;23.260;2023-12-28T06:47:59;39.37;;;28.10;;
12792;SDS011;6460;42.684;23.260;2023-12-28T06:50:27;39.93;;;28.50;;
12792;SDS011;6460;42.684;23.260;2023-12-28T06:52:55;45.10;;;28.40;;
12792;SDS011;6460;42.684;23.260;2023-12-28T06:55:23;35.27;;;25.00;;
12792;SDS011;6460;42.684;23.260;2023-12-28T06:57:51;38.63;;;27.53;;
12792;SDS011;6460;42.684;23.260;2023-12-28T07:00:20;46.00;;;28.03;;
12792;SDS011;6460;42.684;23.260;2023-12-28T07:02:48;43.17;;;29.77;;
12792;SDS011;6460;42.684;23.260;2023-12-28T07:05:16;38.20;;;26.00;;
12792;SDS011;6460;42.684;23.260;2023-12-28T07:07:44;45.97;;;31.07;;
12792;SDS011;6460;42.684;23.260;2023-12-28T07:10:12;33.17;;;23.93;;
12792;SDS011;6460;42.684;23.260;2023-12-28T07:12:40;39.33;;;27.97;;
12792;SDS011;6460;42.684;23.260;2023-12-28T07:15:08;39.90;;;28.13;;
12792;SDS011;6460;42.684;23.260;2023-12-28T07:17:41;33.23;;;23.70;;
12792;SDS011;6460;42.684;23.260;2023-12-28T07:20:09;35.53;;;23.87;;
12792;SDS011;6460;42.684;23.260;2023-12-28T07:22:37;36.10;;;25.10;;
12792;SDS011;6460;42.684;23.260;2023-12-28T07:25:05;32.07;;;22.87;;
12792;SDS011;6460;42.684;23.260;2023-12-28T07:27:34;32.77;;;23.60;;
12792;SDS011;6460;42.684;23.260;2023-12-28T07:30:03;32.73;;;23.27;;
12792;SDS011;6460;42.684;23.260;2023-12-28T07:32:32;29.60;;;21.73;;
12792;SDS011;6460;42.684;23.260;2023-12-28T07:35:02;30.10;;;21.50;;
12792;SDS011;6460;42.684;23.260;2023-12-28T07:37:30;29.40;;;21.13;;
12792;SDS011;6460;42.684;23.260;2023-12-28T07:39:58;29.77;;;21.10;;
12792;SDS011;6460;42.684;23.260;2023-12-28T07:42:26;30.43;;;21.43;;
12792;SDS011;6460;42.684;23.260;2023-12-28T07:44:54;28.43;;;20.97;;
12792;SDS011;6460;42.684;23.260;2023-12-28T07:47:22;29.27;;;20.47;;
12792;SDS011;6460;42.684;23.260;2023-12-28T07:49:49;33.87;;;22.27;;
12792;SDS011;6460;42.684;23.260;2023-12-28T07:52:19;32.30;;;23.17;;
12792;SDS011;6460;42.684;23.260;2023-12-28T07:54:47;29.10;;;21.73;;
12792;SDS011;6460;42.684;23.260;2023-12-28T07:57:15;30.67;;;22.37;;
12792;SDS011;6460;42.684;23.260;2023-12-28T07:59:43;32.67;;;21.83;;
12792;SDS011;6460;42.684;23.260;2023-12-28T08:02:11;33.30;;;22.77;;
12792;SDS011;6460;42.684;23.260;2023-12-28T08:04:39;34.60;;;23.07;;
12792;SDS011;6460;42.684;23.260;2023-12-28T08:07:07;31.37;;;21.67;;
12792;SDS011;6460;42.684;23.260;2023-12-28T08:09:37;28.57;;;20.73;;
12792;SDS011;6460;42.684;23.260;2023-12-28T08:12:05;30.67;;;21.97;;
12792;SDS011;6460;42.684;23.260;2023-12-28T08:14:33;32.10;;;22.67;;
12792;SDS011;6460;42.684;23.260;2023-12-28T08:17:01;32.93;;;23.43;;
12792;SDS011;6460;42.684;23.260;2023-12-28T08:19:29;32.37;;;21.10;;
12792;SDS011;6460;42.684;23.260;2023-12-28T08:21:57;30.10;;;21.97;;
12792;SDS011;6460;42.684;23.260;2023-12-28T08:24:25;31.07;;;20.83;;
12792;SDS011;6460;42.684;23.260;2023-12-28T08:26:54;33.20;;;22.00;;
12792;SDS011;6460;42.684;23.260;2023-12-28T08:29:24;30.67;;;21.03;;
12792;SDS011;6460;42.684;23.260;2023-12-28T08:31:52;30.77;;;21.87;;
12792;SDS011;6460;42.684;23.260;2023-12-28T08:34:21;31.07;;;22.20;;
12792;SDS011;6460;42.684;23.260;2023-12-28T08:36:48;32.43;;;20.97;;
12792;SDS011;6460;42.684;23.260;2023-12-28T08:39:17;27.37;;;20.93;;
12792;SDS011;6460;42.684;23.260;2023-12-28T08:41:45;29.23;;;21.57;;
12792;SDS011;6460;42.684;23.260;2023-12-28T08:44:15;30.13;;;21.47;;
12792;SDS011;6460;42.684;23.260;2023-12-28T08:46:43;36.73;;;23.93;;
12792;SDS011;6460;42.684;23.260;2023-12-28T08:49:11;34.30;;;24.37;;
12792;SDS011;6460;42.684;23.260;2023-12-28T08:51:41;34.67;;;24.23;;
12792;SDS011;6460;42.684;23.260;2023-12-28T08:54:09;40.83;;;25.27;;
12792;SDS011;6460;42.684;23.260;2023-12-28T08:56:37;39.30;;;24.43;;
12792;SDS011;6460;42.684;23.260;2023-12-28T08:59:05;36.53;;;23.10;;
12792;SDS011;6460;42.684;23.260;2023-12-28T09:01:35;38.23;;;24.27;;
12792;SDS011;6460;42.684;23.260;2023-12-28T09:04:03;39.30;;;23.33;;
12792;SDS011;6460;42.684;23.260;2023-12-28T09:06:31;29.73;;;21.33;;
12792;SDS011;6460;42.684;23.260;2023-12-28T09:08:59;31.27;;;20.70;;
12792;SDS011;6460;42.684;23.260;2023-12-28T09:11:29;30.50;;;19.80;;
12792;SDS011;6460;42.684;23.260;2023-12-28T09:13:57;25.37;;;17.90;;
12792;SDS011;6460;42.684;23.260;2023-12-28T09:16:25;24.30;;;18.53;;
12792;SDS011;6460;42.684;23.260;2023-12-28T09:18:55;26.23;;;18.93;;
12792;SDS011;6460;42.684;23.260;2023-12-28T09:21:23;26.47;;;19.30;;
12792;SDS011;6460;42.684;23.260;2023-12-28T09:23:51;28.57;;;20.00;;
12792;SDS011;6460;42.684;23.260;2023-12-28T09:26:19;29.93;;;18.87;;
12792;SDS011;6460;42.684;23.260;2023-12-28T09:28:47;25.97;;;18.10;;
12792;SDS011;6460;42.684;23.260;2023-12-28T09:31:15;27.17;;;18.80;;
12792;SDS011;6460;42.684;23.260;2023-12-28T09:33:43;30.57;;;20.33;;
12792;SDS011;6460;42.684;23.260;2023-12-28T09:36:13;28.70;;;20.57;;
12792;SDS011;6460;42.684;23.260;2023-12-28T09:38:42;29.50;;;21.23;;
12792;SDS011;6460;42.684;23.260;2023-12-28T09:41:12;33.57;;;20.93;;
12792;SDS011;6460;42.684;23.260;2023-12-28T09:43:43;26.67;;;18.40;;
12792;SDS011;6460;42.684;23.260;2023-12-28T09:46:20;21.47;;;17.23;;
12792;SDS011;6460;42.684;23.260;2023-12-28T09:48:48;27.50;;;18.37;;
12792;SDS011;6460;42.684;23.260;2023-12-28T09:51:20;25.23;;;19.33;;
12792;SDS011;6460;42.684;23.260;2023-12-28T09:53:48;27.27;;;20.23;;
12792;SDS011;6460;42.684;23.260;2023-12-28T09:56:16;26.67;;;20.00;;
12792;SDS011;6460;42.684;23.260;2023-12-28T09:58:44;27.70;;;21.00;;
12792;SDS011;6460;42.684;23.260;2023-12-28T10:01:16;27.63;;;20.50;;
12792;SDS011;6460;42.684;23.260;2023-12-28T10:03:45;31.90;;;21.10;;
12792;SDS011;6460;42.684;23.260;2023-12-28T10:06:13;29.27;;;21.60;;
12792;SDS011;6460;42.684;23.260;2023-12-28T10:08:46;26.70;;;20.80;;
12792;SDS011;6460;42.684;23.260;2023-12-28T10:11:15;29.77;;;20.37;;
12792;SDS011;6460;42.684;23.260;2023-12-28T10:13:44;30.90;;;21.57;;
12792;SDS011;6460;42.684;23.260;2023-12-28T10:16:12;31.27;;;22.57;;
12792;SDS011;6460;42.684;23.260;2023-12-28T10:18:41;33.57;;;23.60;;
12792;SDS011;6460;42.684;23.260;2023-12-28T10:21:09;38.17;;;25.17;;
12792;SDS011;6460;42.684;23.260;2023-12-28T10:23:38;34.93;;;24.90;;
12792;SDS011;6460;42.684;23.260;2023-12-28T10:26:07;26.77;;;18.83;;
12792;SDS011;6460;42.684;23.260;2023-12-28T10:28:36;29.83;;;23.40;;
12792;SDS011;6460;42.684;23.260;2023-12-28T10:31:05;27.73;;;20.40;;
12792;SDS011;6460;42.684;23.260;2023-12-28T10:33:34;33.93;;;24.73;;
12792;SDS011;6460;42.684;23.260;2023-12-28T10:36:03;34.90;;;24.00;;
12792;SDS011;6460;42.684;23.260;2023-12-28T10:38:34;30.30;;;23.93;;
12792;SDS011;6460;42.684;23.260;2023-12-28T10:41:03;31.57;;;22.30;;
12792;SDS011;6460;42.684;23.260;2023-12-28T10:43:37;30.70;;;21.53;;
12792;SDS011;6460;42.684;23.260;2023-12-28T10:46:13;36.03;;;26.63;;
12792;SDS011;6460;42.684;23.260;2023-12-28T10:48:49;37.97;;;27.93;;
12792;SDS011;6460;42.684;23.260;2023-12-28T10:51:20;42.53;;;30.23;;
12792;SDS011;6460;42.684;23.260;2023-12-28T10:53:54;42.37;;;31.40;;
12792;SDS011;6460;42.684;23.260;2023-12-28T10:56:33;41.60;;;31.00;;
12792;SDS011;6460;42.684;23.260;2023-12-28T10:59:09;44.87;;;32.73;;
12792;SDS011;6460;42.684;23.260;2023-12-28T11:01:46;42.93;;;32.93;;
12792;SDS011;6460;42.684;23.260;2023-12-28T11:04:17;43.47;;;31.77;;
12792;SDS011;6460;42.684;23.260;2023-12-28T11:06:51;40.70;;;29.70;;
12792;SDS011;6460;42.684;23.260;2023-12-28T11:09:21;41.13;;;29.67;;
12792;SDS011;6460;42.684;23.260;2023-12-28T11:11:51;40.67;;;31.17;;
12792;SDS011;6460;42.684;23.260;2023-12-28T11:14:26;42.63;;;31.77;;
12792;SDS011;6460;42.684;23.260;2023-12-28T11:16:55;42.83;;;30.93;;
12792;SDS011;6460;42.684;23.260;2023-12-28T11:19:25;39.87;;;29.93;;
12792;SDS011;6460;42.684;23.260;2023-12-28T11:21:55;43.83;;;29.07;;
12792;SDS011;6460;42.684;23.260;2023-12-28T11:24:25;42.40;;;30.80;;
12792;SDS011;6460;42.684;23.260;2023-12-28T11:26:54;37.97;;;27.50;;
12792;SDS011;6460;42.684;23.260;2023-12-28T11:29:23;45.23;;;30.23;;
12792;SDS011;6460;42.684;23.260;2023-12-28T11:31:53;41.87;;;28.87;;
12792;SDS011;6460;42.684;23.260;2023-12-28T11:34:24;38.47;;;28.77;;
12792;SDS011;6460;42.684;23.260;2023-12-28T11:36:52;39.83;;;28.80;;
12792;SDS011;6460;42.684;23.260;2023-12-28T11:39:26;35.17;;;28.00;;
12792;SDS011;6460;42.684;23.260;2023-12-28T11:42:02;40.13;;;28.10;;
12792;SDS011;6460;42.684;23.260;2023-12-28T11:44:31;39.03;;;27.67;;
12792;SDS011;6460;42.684;23.260;2023-12-28T11:47:12;40.10;;;28.87;;
12792;SDS011;6460;42.684;23.260;2023-12-28T11:49:40;40.30;;;30.80;;
12792;SDS011;6460;42.684;23.260;2023-12-28T11:52:21;42.40;;;32.37;;
12792;SDS011;6460;42.684;23.260;2023-12-28T11:54:50;46.17;;;31.03;;
12792;SDS011;6460;42.684;23.260;2023-12-28T11:57:18;41.43;;;29.97;;
12792;SDS011;6460;42.684;23.260;2023-12-28T11:59:47;38.23;;;27.10;;
12792;SDS011;6460;42.684;23.260;2023-12-28T12:02:21;34.80;;;27.60;;
12792;SDS011;6460;42.684;23.260;2023-12-28T12:04:49;36.30;;;28.63;;
12792;SDS011;6460;42.684;23.260;2023-12-28T12:07:17;36.73;;;27.43;;
12792;SDS011;6460;42.684;23.260;2023-12-28T12:09:45;33.80;;;26.67;;
12792;SDS011;6460;42.684;23.260;2023-12-28T12:12:15;39.40;;;27.50;;
12792;SDS011;6460;42.684;23.260;2023-12-28T12:14:44;35.87;;;26.70;;
12792;SDS011;6460;42.684;23.260;2023-12-28T12:17:12;33.23;;;26.00;;
12792;SDS011;6460;42.684;23.260;2023-12-28T12:19:41;33.33;;;25.70;;
12792;SDS011;6460;42.684;23.260;2023-12-28T12:22:10;35.77;;;25.47;;
12792;SDS011;6460;42.684;23.260;2023-12-28T12:24:38;30.70;;;22.53;;
12792;SDS011;6460;42.684;23.260;2023-12-28T12:27:08;27.60;;;19.50;;
12792;SDS011;6460;42.684;23.260;2023-12-28T12:29:37;21.83;;;18.23;;
12792;SDS011;6460;42.684;23.260;2023-12-28T12:32:05;24.73;;;18.17;;
12792;SDS011;6460;42.684;23.260;2023-12-28T12:34:33;25.03;;;18.33;;
12792;SDS011;6460;42.684;23.260;2023-12-28T12:37:03;23.67;;;17.93;;
12792;SDS011;6460;42.684;23.260;2023-12-28T12:39:32;25.17;;;19.00;;
12792;SDS011;6460;42.684;23.260;2023-12-28T12:42:01;31.23;;;23.67;;
12792;SDS011;6460;42.684;23.260;2023-12-28T12:44:29;25.07;;;21.57;;
12792;SDS011;6460;42.684;23.260;2023-12-28T12:46:58;31.77;;;24.53;;
12792;SDS011;6460;42.684;23.260;2023-12-28T12:49:26;31.17;;;24.07;;
12792;SDS011;6460;42.684;23.260;2023-12-28T12:51:54;32.40;;;24.03;;
12792;SDS011;6460;42.684;23.260;2023-12-28T12:54:24;31.97;;;25.00;;
12792;SDS011;6460;42.684;23.260;2023-12-28T12:56:54;31.67;;;25.30;;
12792;SDS011;6460;42.684;23.260;2023-12-28T12:59:22;29.73;;;23.53;;
12792;SDS011;6460;42.684;23.260;2023-12-28T13:01:51;35.90;;;23.77;;
12792;SDS011;6460;42.684;23.260;2023-12-28T13:04:19;38.33;;;24.63;;
12792;SDS011;6460;42.684;23.260;2023-12-28T13:06:48;30.97;;;23.10;;
12792;SDS011;6460;42.684;23.260;2023-12-28T13:09:16;37.67;;;22.90;;
12792;SDS011;6460;42.684;23.260;2023-12-28T13:11:46;29.17;;;23.47;;
12792;SDS011;6460;42.684;23.260;2023-12-28T13:14:15;31.40;;;23.93;;
12792;SDS011;6460;42.684;23.260;2023-12-28T13:16:43;32.33;;;23.50;;
12792;SDS011;6460;42.684;23.260;2023-12-28T13:19:13;32.67;;;24.73;;
12792;SDS011;6460;42.684;23.260;2023-12-28T13:21:41;30.60;;;23.53;;
12792;SDS011;6460;42.684;23.260;2023-12-28T13:24:09;30.60;;;22.90;;
12792;SDS011;6460;42.684;23.260;2023-12-28T13:26:37;27.43;;;20.90;;
12792;SDS011;6460;42.684;23.260;2023-12-28T13:29:07;29.07;;;20.97;;
12792;SDS011;6460;42.684;23.260;2023-12-28T13:31:35;30.47;;;20.93;;
12792;SDS011;6460;42.684;23.260;2023-12-28T13:34:03;26.67;;;19.30;;
12792;SDS011;6460;42.684;23.260;2023-12-28T13:36:31;32.03;;;21.97;;
12792;SDS011;6460;42.684;23.260;2023-12-28T13:38:59;29.80;;;20.20;;
12792;SDS011;6460;42.684;23.260;2023-12-28T13:41:28;26.47;;;20.00;;
12792;SDS011;6460;42.684;23.260;2023-12-28T13:43:56;27.53;;;19.67;;
12792;SDS011;6460;42.684;23.260;2023-12-28T13:46:30;29.60;;;20.67;;
12792;SDS011;6460;42.684;23.260;2023-12-28T13:48:58;27.83;;;19.80;;
12792;SDS011;6460;42.684;23.260;2023-12-28T13:51:27;29.43;;;20.50;;
12792;SDS011;6460;42.684;23.260;2023-12-28T13:53:55;27.57;;;20.90;;
12792;SDS011;6460;42.684;23.260;2023-12-28T13:56:23;29.40;;;21.13;;
12792;SDS011;6460;42.684;23.260;2023-12-28T13:58:52;25.07;;;20.27;;
12792;SDS011;6460;42.684;23.260;2023-12-28T14:01:20;27.93;;;20.97;;
12792;SDS011;6460;42.684;23.260;2023-12-28T14:03:49;27.20;;;20.67;;
12792;SDS011;6460;42.684;23.260;2023-12-28T14:06:18;30.37;;;21.57;;
12792;SDS011;6460;42.684;23.260;2023-12-28T14:08:46;31.90;;;22.33;;
12792;SDS011;6460;42.684;23.260;2023-12-28T14:11:14;32.60;;;21.93;;
12792;SDS011;6460;42.684;23.260;2023-12-28T14:13:42;29.40;;;20.93;;
12792;SDS011;6460;42.684;23.260;2023-12-28T14:16:10;37.57;;;22.27;;
12792;SDS011;6460;42.684;23.260;2023-12-28T14:18:38;31.60;;;22.27;;
12792;SDS011;6460;42.684;23.260;2023-12-28T14:21:09;32.50;;;22.03;;
12792;SDS011;6460;42.684;23.260;2023-12-28T14:23:38;30.07;;;21.67;;
12792;SDS011;6460;42.684;23.260;2023-12-28T14:26:08;35.50;;;22.10;;
12792;SDS011;6460;42.684;23.260;2023-12-28T14:28:39;32.83;;;23.10;;
12792;SDS011;6460;42.684;23.260;2023-12-28T14:31:09;37.00;;;23.67;;